createdAt,value
2023-03-20T00:00:15.813Z,100972.42
2023-03-20T00:03:20.208Z,100975.02
2023-03-20T00:06:03.527Z,100977.74
2023-03-20T00:08:38.639Z,100977.26
2023-03-20T00:11:09.309Z,100973.86
2023-03-20T00:13:48.525Z,100978.63
2023-03-20T00:16:20.692Z,100977.30
2023-03-20T00:18:49.886Z,100977.44
2023-03-20T00:21:40.187Z,100977.59
2023-03-20T00:24:22.020Z,100975.52
2023-03-20T00:26:55.388Z,100974.51
2023-03-20T00:29:50.309Z,100972.57
2023-03-20T00:32:24.128Z,100974.70
2023-03-20T00:34:54.092Z,100976.36
2023-03-20T00:37:27.418Z,100977.88
2023-03-20T00:39:56.713Z,100971.75
2023-03-20T00:42:46.050Z,100969.85
2023-03-20T00:45:58.386Z,100966.20
2023-03-20T00:48:37.749Z,100961.70
2023-03-20T00:51:04.953Z,100957.71
2023-03-20T00:54:11.264Z,100955.67
2023-03-20T00:57:17.734Z,100953.80
2023-03-20T01:00:26.132Z,100952.41
2023-03-20T01:03:30.154Z,100952.02
2023-03-20T01:06:32.733Z,100949.99
2023-03-20T01:09:27.142Z,100950.17
2023-03-20T01:12:45.391Z,100951.52
2023-03-20T01:15:33.408Z,100952.06
2023-03-20T01:18:05.889Z,100950.38
2023-03-20T01:20:45.452Z,100947.41
2023-03-20T01:23:26.858Z,100943.70
2023-03-20T01:25:56.657Z,100948.23
2023-03-20T01:29:07.768Z,100944.34
2023-03-20T01:32:31.386Z,100944.02
2023-03-20T01:34:58.496Z,100942.84
2023-03-20T01:37:38.669Z,100943.12
2023-03-20T01:40:45.965Z,100939.61
2023-03-20T01:43:16.858Z,100938.23
2023-03-20T01:46:05.673Z,100942.71
2023-03-20T01:49:00.148Z,100941.80
2023-03-20T01:51:37.072Z,100939.27
2023-03-20T01:54:31.189Z,100941.15
2023-03-20T01:57:34.309Z,100944.23
2023-03-20T02:00:19.343Z,100952.20
2023-03-20T02:03:10.196Z,100951.21
2023-03-20T02:06:23.851Z,100946.55
2023-03-20T02:09:54.152Z,100950.32
2023-03-20T02:13:07.976Z,100951.89
2023-03-20T02:16:26.337Z,100947.94
2023-03-20T02:19:41.027Z,100946.42
2023-03-20T02:22:41.396Z,100944.64
2023-03-20T02:25:55.730Z,100942.33
2023-03-20T02:28:55.054Z,100942.35
2023-03-20T02:32:18.974Z,100939.58
2023-03-20T02:35:10.766Z,100949.28
2023-03-20T02:38:39.701Z,100953.52
2023-03-20T02:41:35.131Z,100962.43
2023-03-20T02:45:11.562Z,100960.27
2023-03-20T02:48:24.691Z,100955.64
2023-03-20T02:51:37.320Z,100955.31
2023-03-20T02:55:04.059Z,100954.83
2023-03-20T02:58:03.142Z,100943.74
2023-03-20T03:00:41.351Z,100939.41
2023-03-20T03:03:34.035Z,100939.45
2023-03-20T03:06:22.288Z,100935.59
2023-03-20T03:09:34.367Z,100929.90
2023-03-20T03:12:36.819Z,100924.84
2023-03-20T03:15:20.732Z,100927.08
2023-03-20T03:17:57.076Z,100930.23
2023-03-20T03:21:30.125Z,100936.22
2023-03-20T03:24:40.732Z,100937.35
2023-03-20T03:27:36.854Z,100937.70
2023-03-20T03:30:47.190Z,100936.21
2023-03-20T03:34:10.601Z,100935.10
2023-03-20T03:37:30.676Z,100936.38
2023-03-20T03:40:07.563Z,100932.27
2023-03-20T03:42:52.039Z,100928.67
2023-03-20T03:45:46.181Z,100930.00
2023-03-20T03:49:09.566Z,100934.52
2023-03-20T03:52:21.914Z,100931.17
2023-03-20T03:55:14.648Z,100927.41
2023-03-20T03:58:27.817Z,100924.73
2023-03-20T04:01:13.231Z,100922.66
2023-03-20T04:03:56.201Z,100931.60
2023-03-20T04:07:37.192Z,100928.33
2023-03-20T04:10:20.894Z,100930.17
2023-03-20T04:12:58.113Z,100930.29
2023-03-20T04:16:16.901Z,100935.03
2023-03-20T04:19:03.800Z,100935.40
2023-03-20T04:21:46.417Z,100929.85
2023-03-20T04:24:41.109Z,100937.03
2023-03-20T04:27:57.473Z,100936.29
2023-03-20T04:31:20.539Z,100938.63
2023-03-20T04:34:42.178Z,100936.23
2023-03-20T04:38:04.676Z,100934.31
2023-03-20T04:41:24.047Z,100928.80
2023-03-20T04:44:27.121Z,100930.80
2023-03-20T04:47:36.946Z,100927.34
2023-03-20T04:50:08.696Z,100926.98
2023-03-20T04:53:28.202Z,100924.92
2023-03-20T04:56:50.929Z,100926.89
2023-03-20T04:59:30.697Z,100927.57
2023-03-20T05:02:24.718Z,100930.81
2023-03-20T05:05:47.655Z,100927.77
2023-03-20T05:08:55.396Z,100929.59
2023-03-20T05:12:21.323Z,100932.66
2023-03-20T05:15:29.292Z,100937.89
2023-03-20T05:19:06.630Z,100939.97
2023-03-20T05:22:52.402Z,100940.27
2023-03-20T05:26:54.878Z,100941.23
2023-03-20T05:30:43.583Z,100942.38
2023-03-20T05:34:41.019Z,100947.27
2023-03-20T05:38:39.011Z,100947.75
2023-03-20T05:42:30.517Z,100940.62
2023-03-20T05:46:30.732Z,100941.03
2023-03-20T05:50:13.187Z,100945.34
2023-03-20T05:54:01.301Z,100950.91
2023-03-20T05:58:00.636Z,100944.47
2023-03-20T06:01:46.574Z,100946.26
2023-03-20T06:05:37.275Z,100949.66
2023-03-20T06:09:14.085Z,100949.70
2023-03-20T06:13:02.238Z,100952.59
2023-03-20T06:16:43.918Z,100954.73
2023-03-20T06:20:25.950Z,100955.27
2023-03-20T06:23:46.887Z,100951.11
2023-03-20T06:27:40.728Z,100948.34
2023-03-20T06:31:19.222Z,100950.39
2023-03-20T06:35:07.013Z,100953.23
2023-03-20T06:38:49.146Z,100955.13
2023-03-20T06:42:37.363Z,100956.15
2023-03-20T06:46:25.869Z,100961.40
2023-03-20T06:50:08.177Z,100964.63
2023-03-20T06:53:57.139Z,100964.08
2023-03-20T06:57:45.335Z,100966.59
2023-03-20T07:01:25.050Z,100962.88
2023-03-20T07:04:54.624Z,100963.56
2023-03-20T07:08:41.352Z,100965.67
2023-03-20T07:12:29.223Z,100967.82
2023-03-20T07:16:14.788Z,100969.48
2023-03-20T07:19:43.155Z,100973.81
2023-03-20T07:23:32.520Z,100974.52
2023-03-20T07:27:20.207Z,100976.79
2023-03-20T07:30:30.473Z,100978.83
2023-03-20T07:33:27.430Z,100979.15
2023-03-20T07:37:09.875Z,100980.39
2023-03-20T07:41:16.857Z,100980.34
2023-03-20T07:45:19.211Z,100978.29
2023-03-20T07:49:08.321Z,100976.54
2023-03-20T07:53:00.469Z,100978.66
2023-03-20T07:56:54.877Z,100983.40
2023-03-20T08:00:44.970Z,100984.77
2023-03-20T08:04:32.684Z,100988.36
2023-03-20T08:08:00.904Z,100989.50
2023-03-20T08:11:34.478Z,100989.91
2023-03-20T08:15:22.975Z,100988.92
2023-03-20T08:18:54.266Z,100986.87
2023-03-20T08:22:42.598Z,100987.14
2023-03-20T08:26:26.752Z,100992.29
2023-03-20T08:30:05.935Z,100991.35
2023-03-20T08:33:37.678Z,100991.96
2023-03-20T08:37:26.177Z,100992.05
2023-03-20T08:41:14.179Z,100996.15
2023-03-20T08:45:02.504Z,101000.91
2023-03-20T08:48:54.893Z,101003.34
2023-03-20T08:52:46.324Z,101007.80
2023-03-20T08:56:35.615Z,101005.90
2023-03-20T09:00:18.928Z,101006.48
2023-03-20T09:04:05.911Z,101010.73
2023-03-20T09:07:55.657Z,101012.67
2023-03-20T09:11:43.627Z,101019.61
2023-03-20T09:15:35.465Z,101025.02
2023-03-20T09:19:26.735Z,101018.00
2023-03-20T09:22:45.375Z,101019.10
2023-03-20T09:26:21.948Z,101006.46
2023-03-20T09:29:31.946Z,101009.31
2023-03-20T09:33:23.464Z,101005.42
2023-03-20T09:37:12.164Z,100998.71
2023-03-20T09:41:11.773Z,100995.70
2023-03-20T09:45:34.799Z,100994.20
2023-03-20T09:49:57.638Z,100994.23
2023-03-20T09:53:52.878Z,101011.10
2023-03-20T09:58:08.985Z,101015.03
2023-03-20T10:02:00.649Z,101023.16
2023-03-20T10:05:30.712Z,101015.58
2023-03-20T10:09:22.181Z,101005.45
2023-03-20T10:13:17.861Z,101006.50
2023-03-20T10:17:11.798Z,101001.40
2023-03-20T10:21:05.528Z,101001.80
2023-03-20T10:25:14.645Z,100997.71
2023-03-20T10:29:02.858Z,101002.52
2023-03-20T10:32:50.336Z,100998.73
2023-03-20T10:36:50.566Z,101000.48
2023-03-20T10:40:40.861Z,100993.05
2023-03-20T10:44:44.906Z,100993.27
2023-03-20T10:48:33.244Z,100987.48
2023-03-20T10:52:26.737Z,100985.27
2023-03-20T10:56:17.027Z,100982.56
2023-03-20T11:00:03.015Z,100982.22
2023-03-20T11:03:49.860Z,100975.07
2023-03-20T11:07:40.813Z,100967.15
2023-03-20T11:11:29.521Z,100962.80
2023-03-20T11:15:17.915Z,100960.74
2023-03-20T11:19:05.943Z,100958.52
2023-03-20T11:22:59.862Z,100951.58
2023-03-20T11:26:53.591Z,100957.33
2023-03-20T11:31:03.204Z,100956.41
2023-03-20T11:35:11.268Z,100957.57
2023-03-20T11:39:17.206Z,100961.13
2023-03-20T11:42:52.035Z,100956.74
2023-03-20T11:46:40.897Z,100961.52
2023-03-20T11:50:28.459Z,100961.55
2023-03-20T11:54:15.898Z,100959.79
2023-03-20T11:58:10.967Z,100957.16
2023-03-20T12:01:41.650Z,100953.77
2023-03-20T12:05:30.873Z,100946.48
2023-03-20T12:09:20.969Z,100940.52
2023-03-20T12:13:04.915Z,100930.34
2023-03-20T12:16:52.977Z,100928.65
2023-03-20T12:20:41.785Z,100930.72
2023-03-20T12:24:07.003Z,100927.73
2023-03-20T12:28:03.916Z,100918.77
2023-03-20T12:31:52.756Z,100918.99
2023-03-20T12:35:46.688Z,100909.35
2023-03-20T12:39:12.154Z,100903.12
2023-03-20T12:42:58.809Z,100893.80
2023-03-20T12:46:24.301Z,100890.54
2023-03-20T12:50:37.055Z,100886.11
2023-03-20T12:54:28.631Z,100880.66
2023-03-20T12:58:19.916Z,100875.78
2023-03-20T13:02:11.711Z,100873.52
2023-03-20T13:06:14.411Z,100869.52
2023-03-20T13:09:59.423Z,100869.62
2023-03-20T13:13:50.484Z,100875.36
2023-03-20T13:18:08.868Z,100885.27
2023-03-20T13:22:01.139Z,100887.42
2023-03-20T13:25:53.207Z,100892.40
2023-03-20T13:29:44.305Z,100898.48
2023-03-20T13:33:56.918Z,100900.67
2023-03-20T13:38:10.882Z,100907.50
2023-03-20T13:42:17.840Z,100916.48
2023-03-20T13:46:15.484Z,100912.48
2023-03-20T13:50:34.069Z,100901.27
2023-03-20T13:54:31.423Z,100888.00
2023-03-20T13:58:12.368Z,100891.16
2023-03-20T14:02:05.272Z,100901.48
2023-03-20T14:05:45.338Z,100907.80
2023-03-20T14:09:38.308Z,100903.13
2023-03-20T14:13:30.514Z,100902.54
2023-03-20T14:17:18.681Z,100900.13
2023-03-20T14:21:12.076Z,100889.18
2023-03-20T14:25:06.308Z,100895.66
2023-03-20T14:28:55.821Z,100892.55
2023-03-20T14:32:43.954Z,100889.10
2023-03-20T14:36:32.480Z,100883.56
2023-03-20T14:40:34.587Z,100882.27
2023-03-20T14:44:25.442Z,100890.59
2023-03-20T14:48:23.104Z,100888.09
2023-03-20T14:52:17.372Z,100890.96
2023-03-20T14:56:30.043Z,100889.90
2023-03-20T15:00:22.305Z,100889.33
2023-03-20T15:04:18.951Z,100886.58
2023-03-20T15:07:59.589Z,100889.52
2023-03-20T15:11:49.936Z,100884.73
2023-03-20T15:15:52.607Z,100885.27
2023-03-20T15:19:46.113Z,100889.06
2023-03-20T15:23:35.121Z,100893.96
2023-03-20T15:26:51.774Z,100901.42
2023-03-20T15:30:40.065Z,100903.09
2023-03-20T15:34:33.951Z,100902.39
2023-03-20T15:38:21.866Z,100911.40
2023-03-20T15:42:04.932Z,100910.84
2023-03-20T15:45:38.909Z,100912.89
2023-03-20T15:49:22.678Z,100918.02
2023-03-20T15:53:36.443Z,100920.64
2023-03-20T15:57:26.946Z,100921.77
2023-03-20T16:01:21.834Z,100926.89
2023-03-20T16:05:06.088Z,100922.76
2023-03-20T16:08:55.032Z,100927.77
2023-03-20T16:12:49.234Z,100933.23
2023-03-20T16:16:39.342Z,100932.73
2023-03-20T16:20:09.793Z,100933.10
2023-03-20T16:23:44.013Z,100945.82
2023-03-20T16:27:33.441Z,100944.75
2023-03-20T16:31:25.527Z,100947.94
2023-03-20T16:35:17.824Z,100950.00
2023-03-20T16:39:21.498Z,100952.27
2023-03-20T16:43:08.370Z,100955.41
2023-03-20T16:46:56.872Z,100953.67
2023-03-20T16:50:45.240Z,100954.59
2023-03-20T16:54:29.314Z,100958.02
2023-03-20T16:57:59.048Z,100958.97
2023-03-20T17:01:56.363Z,100965.96
2023-03-20T17:05:45.346Z,100965.83
2023-03-20T17:09:36.511Z,100960.80
2023-03-20T17:13:25.082Z,100962.71
2023-03-20T17:17:05.497Z,100961.39
2023-03-20T17:21:00.013Z,100969.11
2023-03-20T17:24:46.851Z,100969.54
2023-03-20T17:28:36.325Z,100973.53
2023-03-20T17:32:25.175Z,100974.77
2023-03-20T17:36:13.275Z,100973.07
2023-03-20T17:39:59.544Z,100974.93
2023-03-20T17:43:50.524Z,100970.31
2023-03-20T17:47:39.332Z,100974.59
2023-03-20T17:51:30.779Z,100974.42
2023-03-20T17:54:58.762Z,100976.11
2023-03-20T17:58:47.244Z,100976.73
2023-03-20T18:02:20.123Z,100974.07
2023-03-20T18:06:10.118Z,100976.21
2023-03-20T18:09:41.429Z,100979.28
2023-03-20T18:13:29.918Z,100977.13
2023-03-20T18:17:20.807Z,100977.36
2023-03-20T18:21:11.721Z,100983.55
2023-03-20T18:25:04.033Z,100984.56
2023-03-20T18:29:05.391Z,100980.97
2023-03-20T18:32:59.628Z,100985.13
2023-03-20T18:36:43.683Z,100985.33
2023-03-20T18:40:12.097Z,100984.08
2023-03-20T18:44:00.298Z,100976.74
2023-03-20T18:47:52.553Z,100980.22
2023-03-20T18:51:41.725Z,100982.60
2023-03-20T18:55:32.163Z,100987.06
2023-03-20T18:59:08.300Z,100987.55
2023-03-20T19:03:07.008Z,100993.98
2023-03-20T19:06:58.150Z,100992.93
2023-03-20T19:10:47.577Z,100999.11
2023-03-20T19:18:54.042Z,100997.84
2023-03-20T19:22:42.886Z,100998.06
2023-03-20T19:26:32.786Z,100997.42
2023-03-20T19:30:23.636Z,101001.28
2023-03-20T19:34:47.219Z,100996.16
2023-03-20T19:38:25.668Z,100998.01
2023-03-20T19:42:48.791Z,100997.50
2023-03-20T19:46:43.193Z,100996.86
2023-03-20T19:50:41.295Z,100996.09
2023-03-20T19:54:53.002Z,100996.23
2023-03-20T19:58:43.373Z,100998.08
2023-03-20T20:02:23.854Z,100997.15
2023-03-20T20:06:22.156Z,101002.10
2023-03-20T20:09:54.490Z,101000.70
2023-03-20T20:13:02.701Z,101001.35
2023-03-20T20:17:24.626Z,100994.86
2023-03-20T20:25:23.117Z,100995.54
2023-03-20T20:29:11.528Z,100998.86
2023-03-20T20:33:05.202Z,100997.70
2023-03-20T20:41:01.940Z,100988.09
2023-03-20T20:44:50.545Z,100989.81
2023-03-20T20:48:39.981Z,100990.29
2023-03-20T20:51:48.131Z,100997.38
2023-03-20T20:55:35.512Z,100994.73
2023-03-20T20:59:24.424Z,100992.23
2023-03-20T21:03:13.060Z,100996.09
2023-03-20T21:07:09.887Z,100998.02
2023-03-20T21:10:59.771Z,101001.33
2023-03-20T21:14:49.089Z,101000.24
2023-03-20T21:18:41.756Z,100999.52
2023-03-20T21:26:44.584Z,100995.51
2023-03-20T21:30:11.526Z,101006.34
2023-03-20T21:34:00.632Z,101009.45
2023-03-20T21:50:37.132Z,101004.64
2023-03-20T22:02:24.888Z,100999.02
2023-03-20T22:11:24.905Z,100996.03
2023-03-20T22:24:21.906Z,100990.77
2023-03-20T22:29:06.970Z,100996.56
2023-03-20T22:46:45.241Z,100992.38
2023-03-20T22:50:55.436Z,100995.23
2023-03-20T22:55:24.164Z,100997.98
2023-03-20T22:59:54.094Z,101000.52
2023-03-20T23:15:27.082Z,100997.45
2023-03-20T23:19:54.353Z,100999.29
2023-03-20T23:24:44.805Z,101002.34
2023-03-20T23:28:56.392Z,101002.08
2023-03-20T23:32:49.416Z,101002.02
2023-03-20T23:36:36.844Z,101009.16
2023-03-20T23:40:29.202Z,101003.02
2023-03-20T23:44:28.109Z,101003.02
2023-03-20T23:48:36.165Z,100996.11
2023-03-20T23:52:34.307Z,100990.91
2023-03-20T23:56:46.619Z,100987.23
